M I D A S
Marine Information and Data Acquisition System
Tripno 69 of the Zeeleeuw from 2001-11-30 09:45:00 to 2001-11-30 15:10:00
Back to CruiseResearch ActivitiesStationsMapUnderway DataData graphs

EquipmentUnitsComment
TimeDGPSUTC
LatitudeDGPSDM.mWGS84
LongitudeDGPSDM.mWGS84
HeadingGyrodeg 
SOGDGPSknotsSpeed over ground
COGDGPSdegCourse over ground
DepthEcho soundermeters200 kHz
Missing or incorrect values are displayed as -999
Navigation data collected by the RV Zeeleeuw from 2001-11-30 09:45:00 to 2001-11-30 15:10:00
Time Latitude Longitude Heading SOG COG Depth
2001-11-30 09:46:03 51°20.166 2°59.655 34.3 13.8 30.8 11.3
2001-11-30 09:47:03 51°20.362 2°59.844 35.5 13.8 33.5 11.7
2001-11-30 09:48:02 51°20.557 3°0.027 31 13.8 30 12
2001-11-30 09:49:03 51°20.758 3°0.216 35.2 13.7 32.1 12.3
2001-11-30 09:50:03 51°20.956 3°0.399 33.3 13.8 29.8 12.4
2001-11-30 09:51:03 51°21.153 3°0.585 32.8 13.7 29.9 12.7
2001-11-30 09:52:03 51°21.349 3°0.772 32.3 13.8 30.3 12.8
2001-11-30 09:53:04 51°21.548 3°0.96 32.3 13.6 30.1 12.9
2001-11-30 09:54:02 51°21.739 3°1.129 28.5 13.5 26.5 13
2001-11-30 09:55:04 51°21.951 3°1.286 28.3 13.6 25.9 12.9
2001-11-30 09:56:04 51°22.156 3°1.443 29.2 13.7 26.8 12.7
2001-11-30 09:57:03 51°22.357 3°1.599 27.3 13.6 25.6 12.3
2001-11-30 09:58:03 51°22.564 3°1.75 26.8 13.7 25 12.6
2001-11-30 09:59:03 51°22.771 3°1.902 26.2 13.6 24.3 12.5
2001-11-30 10:00:03 51°22.976 3°2.06 25 13.7 24.6 11.3
2001-11-30 10:01:03 51°23.183 3°2.219 24.2 14 24.9 13.9
2001-11-30 10:02:03 51°23.389 3°2.385 25.8 13.9 27.7 13
2001-11-30 10:03:03 51°23.595 3°2.55 26.8 13.8 27.7 15.3
2001-11-30 10:04:03 51°23.803 3°2.716 27 14 27.5 15.8
2001-11-30 10:05:03 51°24.011 3°2.884 27.2 14 27 16.1
2001-11-30 10:06:03 51°24.219 3°3.055 26.3 14 26.1 16.5
2001-11-30 10:07:03 51°24.433 3°3.2 20.2 14 22 20.2
2001-11-30 10:08:03 51°24.643 3°3.36 26.8 14 28.3 19.8
2001-11-30 10:09:03 51°24.851 3°3.519 26.7 13.8 26.1 16.5
2001-11-30 10:10:03 51°25.056 3°3.686 28.5 13.8 27.7 16.4
2001-11-30 10:11:03 51°25.26 3°3.854 27.7 13.7 26.4 14.6
2001-11-30 10:12:03 51°25.466 3°4.009 24.2 13.6 24 13.8
2001-11-30 10:13:03 51°25.67 3°4.161 24.5 13.7 24.7 13.9
2001-11-30 10:14:03 51°25.871 3°4.327 26.5 13.6 28.6 13.3
2001-11-30 10:15:03 51°26.071 3°4.492 27.5 13.5 26.3 12.8
2001-11-30 10:16:03 51°26.189 3°4.773 91.8 13.5 88.8 13.6
2001-11-30 10:17:03 51°26.11 3°5.125 115.7 14.4 114.7 12.9
2001-11-30 10:18:04 51°26.008 3°5.483 116.7 14.6 115 12.5
2001-11-30 10:19:03 51°25.91 3°5.832 115.7 14.6 113.9 12.3
2001-11-30 10:20:03 51°25.802 3°6.179 125.5 14.5 122.2 11.8
2001-11-30 10:21:03 51°25.666 3°6.504 126 14.8 123.5 12.1
2001-11-30 10:22:03 51°25.535 3°6.835 127 14.7 124 12.1
2001-11-30 10:23:04 51°25.396 3°7.167 127.5 14.8 124.1 11.5
2001-11-30 10:24:03 51°25.262 3°7.489 127.2 14.8 123.5 10.6
2001-11-30 10:25:04 51°25.127 3°7.824 126.5 14.7 122.9 9.9
2001-11-30 10:26:04 51°24.999 3°8.163 124.5 14.9 120.7 10.1
2001-11-30 10:27:03 51°24.874 3°8.503 124.7 15.1 120.3 10.9
2001-11-30 10:28:03 51°24.754 3°8.855 122.8 15 118.5 11.4
2001-11-30 10:29:04 51°24.633 3°9.217 122.7 15.2 117.7 12.2
2001-11-30 10:30:03 51°24.558 3°9.588 92.3 15.1 90.9 13.1
2001-11-30 10:31:03 51°24.577 3°9.993 85.3 15.3 83.4 13.1
2001-11-30 10:32:04 51°24.63 3°10.396 71.5 15.3 70.1 13.2
2001-11-30 10:33:04 51°24.749 3°10.749 55.7 15 55.9 13
2001-11-30 10:34:04 51°24.93 3°10.985 12.5 13.2 17.2 12.5
2001-11-30 10:35:03 51°25.09 3°10.838 308.7 11.7 308.9 11
2001-11-30 10:36:03 51°25.201 3°10.578 310.3 11.9 309.3 10.7
2001-11-30 10:37:04 51°25.33 3°10.326 310.2 12 308.6 9.9
2001-11-30 10:38:03 51°25.454 3°10.086 311.3 11.9 309.6 9.4
2001-11-30 10:39:03 51°25.58 3°9.843 311.3 11.9 310.2 9.3
2001-11-30 10:40:03 51°25.708 3°9.599 311.5 12 310.5 9.5
2001-11-30 10:41:03 51°25.836 3°9.354 310.7 12.1 309.9 10
2001-11-30 10:42:03 51°25.967 3°9.109 310.8 12.2 310.4 10.7
2001-11-30 10:43:03 51°26.098 3°8.86 310 12.2 309.6 11.5
2001-11-30 10:44:04 51°26.231 3°8.606 309.7 12.2 309.9 12.2
2001-11-30 10:45:03 51°26.355 3°8.351 307.8 12.3 307.5 12.5
2001-11-30 10:46:03 51°26.48 3°8.092 308.3 12.3 308 12.6
2001-11-30 10:47:04 51°26.608 3°7.83 308.8 12.3 308.6 12.8
2001-11-30 10:48:03 51°26.731 3°7.577 308 12.3 307.9 13.3
2001-11-30 10:49:04 51°26.86 3°7.313 306.8 12.4 306.9 13.9
2001-11-30 10:50:03 51°26.982 3°7.055 307.2 12.4 307.1 14.5
2001-11-30 10:51:04 51°27.11 3°6.79 306.8 12.4 307.1 15.1
2001-11-30 10:52:03 51°27.233 3°6.532 307 12.4 307.4 15.8
2001-11-30 10:53:03 51°27.36 3°6.269 307 12.5 307.8 16.2
2001-11-30 10:54:03 51°27.518 3°6.083 355.8 12.8 355.3 16.7
2001-11-30 10:55:04 51°27.744 3°6.066 348.5 13.4 351 17.1
2001-11-30 10:56:03 51°27.924 3°6.21 66.3 13.8 62.6 17.5
2001-11-30 10:57:04 51°28.009 3°6.576 65.2 14.8 63.8 17.6
2001-11-30 10:58:04 51°28.12 3°6.931 63.5 14.9 63.3 17.5
2001-11-30 10:59:04 51°28.225 3°7.296 66.3 15.1 65.4 17.5
2001-11-30 11:00:04 51°28.335 3°7.653 65.3 15 64.8 17.3
2001-11-30 11:01:03 51°28.437 3°8.013 66.8 15.1 66.7 16.7
2001-11-30 11:02:04 51°28.545 3°8.386 66 15.2 66.3 16.2
2001-11-30 11:03:04 51°28.654 3°8.747 64.7 15 65.1 17.3
2001-11-30 11:04:03 51°28.762 3°9.099 64.7 14.9 63.7 17.9
2001-11-30 11:05:04 51°28.872 3°9.465 64.8 15.1 63.8 17.8
2001-11-30 11:06:04 51°28.964 3°9.835 81.8 15 78.3 17.5
2001-11-30 11:07:04 51°28.908 3°10.209 129 14.6 121.8 16.7
2001-11-30 11:08:04 51°28.774 3°10.539 127 14.9 121.1 15.5
2001-11-30 11:09:04 51°28.642 3°10.875 128.3 15 122.5 14.6
2001-11-30 11:10:04 51°28.507 3°11.212 130.3 15.1 124.1 13.9
2001-11-30 11:11:04 51°28.366 3°11.543 130.7 15.1 124.3 12.8
2001-11-30 11:12:04 51°28.226 3°11.876 130.5 15.1 124.2 12.3
2001-11-30 11:13:04 51°28.086 3°12.209 131.2 15 124.3 11.9
2001-11-30 11:14:04 51°27.936 3°12.529 135.3 15.1 128.8 11.7
2001-11-30 11:15:04 51°27.779 3°12.842 134.5 15.1 128.2 11.5
2001-11-30 11:16:04 51°27.622 3°13.156 136 15.1 128.5 11.4
2001-11-30 11:17:04 51°27.469 3°13.471 134.8 15 127.5 11.2
2001-11-30 11:18:04 51°27.317 3°13.783 134.7 14.9 127.7 11.1
2001-11-30 11:19:04 51°27.167 3°14.094 134.2 14.7 126.8 11
2001-11-30 11:20:04 51°27.014 3°14.403 135 14.8 128.4 10.8
2001-11-30 11:21:04 51°26.864 3°14.712 135.8 14.6 128.1 10.6
2001-11-30 11:22:04 51°26.714 3°15.022 135.2 14.7 127.8 10.2
2001-11-30 11:23:04 51°26.565 3°15.331 134.3 14.7 127.3 9.7
2001-11-30 11:24:04 51°26.416 3°15.637 134.8 14.6 127.7 9
2001-11-30 11:25:04 51°26.267 3°15.942 135.5 14.5 128.3 8.8
2001-11-30 11:26:04 51°26.117 3°16.251 134.5 14.9 127.3 9.8
2001-11-30 11:27:03 51°25.98 3°16.544 134.7 13.2 126.3 10.8
2001-11-30 11:28:04 51°25.86 3°16.808 135.5 10.9 125.1 11.6
2001-11-30 11:29:04 51°25.776 3°17.014 135.7 8 121.6 11.5
2001-11-30 11:30:04 51°25.715 3°17.185 134.5 7.2 118.5 11.9
2001-11-30 11:31:04 51°25.65 3°17.367 134.8 8.6 121.1 12.4
2001-11-30 11:32:04 51°25.554 3°17.579 143.2 10.2 130.2 12.8
2001-11-30 11:33:04 51°25.437 3°17.805 140.7 11.7 128.3 12.9
2001-11-30 11:34:04 51°25.302 3°18.07 141.2 13.9 129.5 12.6
2001-11-30 11:35:04 51°25.141 3°18.37 141.3 15.2 130.9 14
2001-11-30 11:36:04 51°24.976 3°18.679 141.5 15.3 131.1 14.5
2001-11-30 11:37:03 51°24.812 3°18.985 140.2 15.5 129.6 16.3
2001-11-30 11:38:04 51°24.641 3°19.305 140.5 15.6 130.1 17.8
2001-11-30 11:39:04 51°24.474 3°19.627 141.5 15.7 130.4 21.4
2001-11-30 11:40:04 51°24.302 3°19.935 148.2 15.2 135.9 21.1
2001-11-30 11:41:04 51°24.095 3°20.063 193.8 12.6 178.2 18.6
2001-11-30 11:42:04 51°23.958 3°19.889 242.7 10.8 234.8 17.5
2001-11-30 11:43:04 51°23.853 3°19.65 242.7 11 235.3 16.3
2001-11-30 11:44:04 51°23.75 3°19.405 243.7 11.1 236.7 15.6
2001-11-30 11:45:04 51°23.66 3°19.15 246.5 11 240.6 14.8
2001-11-30 11:46:04 51°23.568 3°18.895 246 11.1 239.9 14.3
2001-11-30 11:47:04 51°23.475 3°18.638 245.8 11.1 239.4 13.8
2001-11-30 11:48:04 51°23.388 3°18.38 250.7 11 245.9 13.4
2001-11-30 11:49:04 51°23.321 3°18.113 254.5 10.8 250 12.7
2001-11-30 11:50:04 51°23.266 3°17.838 255.2 10.7 251.9 12.1
2001-11-30 11:51:04 51°23.221 3°17.56 259 10.9 256.8 11.9
2001-11-30 11:52:04 51°23.178 3°17.277 260.2 11 258.1 11.5
2001-11-30 11:53:04 51°23.141 3°16.992 260.2 10.9 258.1 11.6
2001-11-30 11:54:04 51°23.104 3°16.707 259.8 10.9 257.7 11.4
2001-11-30 11:55:04 51°23.067 3°16.424 260.3 10.9 258.2 11.5
2001-11-30 11:56:04 51°23.028 3°16.145 260.3 10.6 257.9 11.6
2001-11-30 11:57:04 51°22.99 3°15.867 260.2 10.8 257.4 11.7
2001-11-30 11:58:03 51°22.954 3°15.593 262.7 10.6 260.6 11.8
2001-11-30 11:59:04 51°22.921 3°15.308 262.2 10.8 259.6 12.1
2001-11-30 12:00:04 51°22.889 3°15.025 262.2 10.8 259.4 12.3
2001-11-30 12:01:04 51°22.855 3°14.74 262.2 11.1 259.8 12.7
2001-11-30 12:02:03 51°22.823 3°14.455 262.3 11 259.8 13
2001-11-30 12:03:03 51°22.79 3°14.169 261.7 10.9 259.4 13.5
2001-11-30 12:04:03 51°22.757 3°13.883 262.2 10.9 259.6 13.9
2001-11-30 12:05:03 51°22.718 3°13.599 261.8 11 259.2 14.3
2001-11-30 12:06:03 51°22.686 3°13.307 262.5 11.1 260.5 14.9
2001-11-30 12:07:03 51°22.654 3°13.013 262.5 11.3 260.1 15.7
2001-11-30 12:08:03 51°22.616 3°12.72 262.3 11.2 260.5 16.4
2001-11-30 12:09:03 51°22.585 3°12.425 261.2 11.3 259.8 16.8
2001-11-30 12:10:03 51°22.55 3°12.128 261.3 11.4 260 17.2
2001-11-30 12:11:03 51°22.516 3°11.829 261.3 11.5 259.9 17.7
2001-11-30 12:12:03 51°22.48 3°11.529 260.2 11.4 258.6 18.2
2001-11-30 12:13:04 51°22.445 3°11.226 259.8 11.4 259.2 18.5
2001-11-30 12:14:04 51°22.41 3°10.924 260.3 11.6 259.7 18.6
2001-11-30 12:15:03 51°22.373 3°10.624 260.3 11.8 259.2 19.7
2001-11-30 12:16:03 51°22.332 3°10.313 259.3 12 258.3 18.2
2001-11-30 12:17:03 51°22.295 3°10.004 259 11.7 259.3 16.8
2001-11-30 12:18:03 51°22.256 3°9.699 257.7 11.7 258.1 16.3
2001-11-30 12:19:03 51°22.215 3°9.393 258.5 11.7 258.7 15.9
2001-11-30 12:20:03 51°22.174 3°9.09 258 11.6 257.8 15.4
2001-11-30 12:21:03 51°22.13 3°8.789 257 11.6 256.6 15.1
2001-11-30 12:22:03 51°22.086 3°8.488 257.3 11.7 257.3 14.9
2001-11-30 12:23:03 51°22.042 3°8.184 257.5 11.8 257.2 14.5
2001-11-30 12:24:03 51°21.996 3°7.88 257 11.6 256.5 14.6
2001-11-30 12:25:03 51°21.952 3°7.581 257 11.6 256.6 14.7
2001-11-30 12:26:04 51°21.906 3°7.275 256.8 11.6 256.4 14.4
2001-11-30 12:27:03 51°21.864 3°6.98 258.2 11.6 258 14.3
2001-11-30 12:28:03 51°21.822 3°6.677 258.2 11.6 257.9 14.2
2001-11-30 12:29:03 51°21.78 3°6.376 258.2 11.7 257.2 14.2
2001-11-30 12:30:03 51°21.736 3°6.071 258.2 11.8 257.6 14
2001-11-30 12:31:03 51°21.693 3°5.765 257.7 11.8 256.5 13.8
2001-11-30 12:32:03 51°21.65 3°5.461 258.2 11.7 257.5 13.7
2001-11-30 12:33:03 51°21.606 3°5.161 258.5 11.5 257.7 13.9
2001-11-30 12:34:03 51°21.564 3°4.863 257.8 11.5 257.3 13.7
2001-11-30 12:35:03 51°21.522 3°4.566 258.2 11.5 257.6 13.6
2001-11-30 12:36:04 51°21.48 3°4.263 257.7 11.5 257.1 13.5
2001-11-30 12:37:03 51°21.438 3°3.969 258.2 11.5 258.1 13.6
2001-11-30 12:38:04 51°21.395 3°3.662 258.2 11.7 257.4 13.6
2001-11-30 12:39:04 51°21.353 3°3.356 257.8 11.8 257.3 13.7
2001-11-30 12:40:04 51°21.311 3°3.049 257.8 11.7 257.6 13.7
2001-11-30 12:41:03 51°21.272 3°2.758 258 11.1 257.3 13.7
2001-11-30 12:42:04 51°21.177 3°2.506 235.3 11 231.2 13.7
2001-11-30 12:43:04 51°21.066 3°2.259 234.3 11.6 231.7 13.6
2001-11-30 12:44:03 51°20.941 3°2.031 234.2 11.4 230.3 13.4
2001-11-30 12:45:04 51°20.817 3°1.788 234.2 11.7 230.9 13.2
2001-11-30 12:46:04 51°20.692 3°1.548 234.7 11.7 231.1 13
2001-11-30 12:47:04 51°20.57 3°1.305 234.7 11.7 230.8 12.9
2001-11-30 12:48:03 51°20.452 3°1.066 233.8 11.6 231.8 12.6
2001-11-30 12:49:03 51°20.331 3°0.82 233.8 11.8 232.2 12.4
2001-11-30 12:50:03 51°20.21 3°0.57 233.7 11.9 231.9 12.3
2001-11-30 12:51:04 51°20.085 3°0.314 234 12 231.9 12.1
2001-11-30 12:52:04 51°19.962 3°0.064 234.5 11.9 231.1 12
2001-11-30 12:53:04 51°19.84 2°59.817 234.2 11.8 231.2 11.8
2001-11-30 12:54:04 51°19.726 2°59.562 239.8 11.8 238.8 11.7
2001-11-30 12:55:04 51°19.625 2°59.288 241.2 12.1 239.8 11.4
2001-11-30 12:56:03 51°19.547 2°59.001 248.7 12 249.5 11.6
2001-11-30 12:57:03 51°19.471 2°58.71 247.2 11.9 246.7 11.7
2001-11-30 12:58:04 51°19.398 2°58.41 248.8 11.9 248.4 11.8
2001-11-30 12:59:04 51°19.327 2°58.113 249.3 12 249.7 11.9
2001-11-30 13:00:03 51°19.261 2°57.818 249.8 12 251.2 12
2001-11-30 13:01:03 51°19.195 2°57.515 250.5 12.1 250.9 12.2
2001-11-30 13:02:04 51°19.124 2°57.209 250 12.1 250.1 11.6
2001-11-30 13:03:04 51°19.053 2°56.906 249.5 12.2 249.3 12.6
2001-11-30 13:04:03 51°18.984 2°56.607 249.3 12.2 249.7 12.7
2001-11-30 13:05:04 51°18.913 2°56.294 250 12.3 250.8 13.2
2001-11-30 13:06:04 51°18.843 2°55.988 250.8 12.3 250.7 12.9
2001-11-30 13:07:04 51°18.781 2°55.677 252.3 12.3 252.7 13.2
2001-11-30 13:08:04 51°18.719 2°55.367 252 12.2 252.5 13.2
2001-11-30 13:09:04 51°18.658 2°55.058 251.7 12.2 251.9 13.3
2001-11-30 13:10:04 51°18.597 2°54.75 252.3 12.1 252.5 13.2
2001-11-30 13:11:04 51°18.537 2°54.443 252.2 12.2 251.9 13.2
2001-11-30 13:12:04 51°18.476 2°54.134 252 12.2 252.8 13.4
2001-11-30 13:13:04 51°18.414 2°53.826 252 12.1 252.5 13.4
2001-11-30 13:14:03 51°18.356 2°53.524 251.8 12.1 252.1 13.4
2001-11-30 13:15:04 51°18.294 2°53.211 252 12.2 252.7 13.5
2001-11-30 13:16:04 51°18.233 2°52.901 252 12.2 252.6 13.5
2001-11-30 13:17:04 51°18.171 2°52.595 247 11.9 249.4 13.4
2001-11-30 13:18:04 51°18.019 2°52.416 204.7 11.7 201.3 13.3
2001-11-30 13:19:04 51°17.82 2°52.369 190 12.1 184.6 13.1
2001-11-30 13:20:04 51°17.614 2°52.383 182 12.5 176.5 13
2001-11-30 13:21:04 51°17.409 2°52.432 167.5 12.7 161.4 12.9
2001-11-30 13:22:04 51°17.223 2°52.59 165.8 12.4 158 12.2
2001-11-30 13:23:04 51°17.031 2°52.734 158 13 151.3 12.8
2001-11-30 13:24:04 51°16.835 2°52.853 165.5 12.6 158.5 11.7
2001-11-30 13:25:04 51°16.637 2°52.982 163.5 13 156.4 14.1
2001-11-30 13:26:04 51°16.443 2°53.129 161.7 12.9 153.8 14.8
2001-11-30 13:27:04 51°16.249 2°53.286 162 13.1 153.2 14.7
2001-11-30 13:28:04 51°16.054 2°53.441 160.8 13.1 152.6 14.3
2001-11-30 13:29:04 51°15.856 2°53.587 163.5 13.1 154.7 14
2001-11-30 13:30:04 51°15.66 2°53.739 162.5 12.9 154.7 13.4
2001-11-30 13:31:04 51°15.467 2°53.904 157.2 13.2 150.3 12.5
2001-11-30 13:32:04 51°15.275 2°54.068 157.7 13.1 153.1 11.8
2001-11-30 13:33:04 51°15.084 2°54.249 154.3 13.5 148.4 11.1
2001-11-30 13:34:04 51°14.9 2°54.444 154.8 13.3 144.7 11.2
2001-11-30 13:35:04 51°14.718 2°54.651 152.8 13.5 145.2 11.8
2001-11-30 13:36:04 51°14.541 2°54.856 152.3 12.9 141.5 12.1
2001-11-30 13:37:04 51°14.372 2°55.059 135.8 12.6 133 12.3
2001-11-30 13:38:04 51°14.231 2°55.307 138.8 12.5 135.8 12.1
2001-11-30 13:39:03 51°14.114 2°55.419 157.3 6.2 155.8 11.9
2001-11-30 13:40:04 51°14.039 2°55.474 160 4.2 156.3 11.9
2001-11-30 13:41:04 51°13.982 2°55.515 157.5 3.6 153.5 11.8
2001-11-30 13:42:04 51°13.927 2°55.558 159.3 3.9 155.3 12
2001-11-30 13:43:04 51°13.843 2°55.619 156.2 7.1 154.7 11.9
2001-11-30 13:44:04 51°13.774 2°55.692 140 3.9 138.6 12.1
2001-11-30 13:45:03 51°13.743 2°55.749 132.7 2.6 134 12.1
2001-11-30 13:46:04 51°13.72 2°55.797 134.3 2 127 12.6
2001-11-30 13:47:03 51°13.702 2°55.84 120.7 2.1 119.6 11.4
2001-11-30 13:48:04 51°13.69 2°55.899 117.7 1.9 109.1 10
2001-11-30 14:10:53 51°13.688 2°55.907     21.1 -999
2001-11-30 14:11:54 51°13.689 2°55.906     281.1 -999
2001-11-30 14:12:54 51°13.69 2°55.906 359.5   322 -999
2001-11-30 14:13:54 51°13.69 2°55.907 359.8   191.3 -999
2001-11-30 14:14:54 51°13.69 2°55.907 359.8   256.7 -999
2001-11-30 14:15:54 51°13.689 2°55.906 0.5   214.4 -999
2001-11-30 14:16:54 51°13.689 2°55.906 0.2   150.4 -999
2001-11-30 14:17:54 51°13.689 2°55.906 0.3   255.9 -999
2001-11-30 14:18:54 51°13.689 2°55.906     235.1 -999
2001-11-30 14:19:54 51°13.689 2°55.906 0.2   277.8 -999
2001-11-30 14:20:54 51°13.689 2°55.907 359.8   156 -999
2001-11-30 14:21:54 51°13.687 2°55.906     142.7 -999
2001-11-30 14:22:54 51°13.687 2°55.906     33.5 -999
2001-11-30 14:23:54 51°13.687 2°55.906 0.2   306.1 -999
2001-11-30 14:24:54 51°13.687 2°55.906 0.3   251 -999
2001-11-30 14:25:54 51°13.687 2°55.907 0.2   306.9 -999
2001-11-30 14:26:54 51°13.688 2°55.907 0.5   230.8 -999
2001-11-30 14:27:54 51°13.688 2°55.906     195.9 -999
2001-11-30 14:28:54 51°13.688 2°55.906 0.5   47 -999
2001-11-30 14:29:54 51°13.688 2°55.906 0.5   24.8 -999
2001-11-30 14:30:54 51°13.688 2°55.906 0.3 0.1 216 -999
2001-11-30 14:31:54 51°13.688 2°55.906 0.7   354.5 -999
2001-11-30 14:32:54 51°13.688 2°55.907 1   243.7 -999
2001-11-30 14:33:54 51°13.688 2°55.907 359.7   192.5 -999
2001-11-30 14:34:54 51°13.688 2°55.907 0.3   204.3 -999
2001-11-30 14:35:54 51°13.688 2°55.907     309.7 -999
2001-11-30 14:36:54 51°13.688 2°55.907 0.2   211.9 -999
2001-11-30 14:37:54 51°13.688 2°55.907     256.3 -999
2001-11-30 14:38:54 51°13.688 2°55.907 0.8   207.1 -999
2001-11-30 14:39:54 51°13.688 2°55.907 1   214.1 -999
2001-11-30 14:40:54 51°13.689 2°55.907 1   198 -999
2001-11-30 14:41:54 51°13.689 2°55.907 0.7   244.7 -999
2001-11-30 14:42:54 51°13.688 2°55.907 0.8   245.2 -999
2001-11-30 14:43:54 51°13.688 2°55.907 1.5 0.1 202.6 -999
2001-11-30 14:44:54 51°13.688 2°55.907 0.7   30.7 -999
2001-11-30 14:45:54 51°13.688 2°55.907 0.5   104.9 -999
2001-11-30 14:46:54 51°13.688 2°55.907 0.3   41.4 -999
2001-11-30 14:47:54 51°13.688 2°55.907 0.7   77.5 -999
2001-11-30 14:48:54 51°13.688 2°55.907 0.5   194.3 -999
2001-11-30 14:49:54 51°13.688 2°55.906 0.2   299 -999
2001-11-30 14:50:53 51°13.689 2°55.907 0.3   232.1 -999
2001-11-30 14:51:53 51°13.688 2°55.907 359.7   27.2 -999
2001-11-30 14:52:54 51°13.688 2°55.906 0.7   26 -999
2001-11-30 14:53:53 51°13.688 2°55.907 0.3   71.6 -999
2001-11-30 14:54:53 51°13.688 2°55.906 1.2   13.1 -999
2001-11-30 14:55:53 51°13.688 2°55.906 0.8   234.5 -999
2001-11-30 14:56:54 51°13.688 2°55.907 1.2   80 -999